createdAt,value
2023-02-08T00:00:44.429Z,-142.80
2023-02-08T00:05:46.058Z,-142.80
2023-02-08T00:10:47.678Z,-142.80
2023-02-08T00:15:49.396Z,-142.80
2023-02-08T00:20:52.195Z,-142.80
2023-02-08T00:25:53.822Z,-142.80
2023-02-08T00:30:55.521Z,-142.80
2023-02-08T00:36:01.359Z,-142.80
2023-02-08T00:41:03.016Z,-142.80
2023-02-08T00:46:05.281Z,-142.80
2023-02-08T00:51:10.742Z,-142.80
2023-02-08T00:56:14.614Z,-142.80
2023-02-08T01:01:16.368Z,-142.80
2023-02-08T01:06:18.454Z,-142.80
2023-02-08T01:11:25.092Z,-142.80
2023-02-08T01:16:29.506Z,-142.80
2023-02-08T01:21:34.530Z,-142.80
2023-02-08T01:26:36.922Z,-142.80
2023-02-08T01:31:42.577Z,-142.80
2023-02-08T01:36:44.260Z,-142.80
2023-02-08T01:41:46.796Z,-142.80
2023-02-08T01:46:51.298Z,-142.80
2023-02-08T01:52:01.285Z,-142.80
2023-02-08T01:57:03.312Z,-142.80
2023-02-08T02:02:07.993Z,-142.80
2023-02-08T02:07:09.988Z,-142.80
2023-02-08T02:12:14.014Z,-142.80
2023-02-08T02:17:18.453Z,-142.80
2023-02-08T02:22:28.961Z,-142.80
2023-02-08T02:27:39.468Z,-142.80
2023-02-08T02:32:53.411Z,-142.80
2023-02-08T02:38:19.209Z,-142.80
2023-02-08T02:43:43.814Z,-142.80
2023-02-08T02:49:04.232Z,-142.80
2023-02-08T02:54:16.873Z,-142.80
2023-02-08T02:59:20.274Z,-142.80
2023-02-08T03:04:33.850Z,-142.80
2023-02-08T03:09:40.767Z,-142.80
2023-02-08T03:15:14.151Z,-142.80
2023-02-08T03:20:24.906Z,-142.80
2023-02-08T03:25:32.821Z,-142.80
2023-02-08T03:30:48.508Z,-142.80
2023-02-08T03:36:06.241Z,-142.80
2023-02-08T03:41:11.766Z,-142.80
2023-02-08T03:46:23.259Z,-142.80
2023-02-08T03:51:28.039Z,-142.80
2023-02-08T03:56:44.686Z,-142.80
2023-02-08T04:01:52.338Z,-142.80
2023-02-08T04:06:54.021Z,-142.80
2023-02-08T04:11:55.619Z,-142.80
2023-02-08T04:16:57.272Z,-142.80
2023-02-08T04:21:58.869Z,-142.80
2023-02-08T04:27:00.493Z,-142.80
2023-02-08T04:32:02.564Z,-142.80
2023-02-08T04:37:05.441Z,-142.80
2023-02-08T04:42:07.119Z,-142.80
2023-02-08T04:47:08.792Z,-142.80
2023-02-08T04:52:10.405Z,-142.80
2023-02-08T04:57:14.115Z,-142.80
2023-02-08T05:02:15.760Z,-142.80
2023-02-08T05:07:17.415Z,-142.80
2023-02-08T05:12:19.028Z,-142.80
2023-02-08T05:17:20.697Z,-142.80
2023-02-08T05:22:22.413Z,-142.80
2023-02-08T05:27:24.239Z,-142.80
2023-02-08T05:32:26.097Z,-142.80
2023-02-08T05:37:27.858Z,-142.80
2023-02-08T05:42:29.461Z,-142.80
2023-02-08T05:47:31.063Z,-142.80
2023-02-08T05:52:32.713Z,-142.80
2023-02-08T05:57:35.776Z,-142.80
2023-02-08T06:02:37.578Z,-142.80
2023-02-08T06:07:39.227Z,-142.80
2023-02-08T06:12:40.838Z,-142.80
2023-02-08T06:17:42.540Z,-142.80
2023-02-08T06:22:44.241Z,-142.80
2023-02-08T06:27:45.890Z,-142.80
2023-02-08T06:32:47.502Z,-142.80
2023-02-08T06:37:49.138Z,-142.80
2023-02-08T06:42:50.981Z,-142.80
2023-02-08T06:47:52.581Z,-142.80
2023-02-08T06:52:54.311Z,-142.80
2023-02-08T06:57:56.684Z,-142.80
2023-02-08T07:02:58.957Z,-142.80
2023-02-08T07:08:00.586Z,-142.80
2023-02-08T07:13:02.502Z,-142.80
2023-02-08T07:18:04.129Z,-142.80
2023-02-08T07:23:05.768Z,-142.80
2023-02-08T07:28:07.395Z,-142.80
2023-02-08T07:33:09.013Z,-142.80
2023-02-08T07:38:10.642Z,-142.80
2023-02-08T07:43:12.290Z,-142.80
2023-02-08T07:48:23.498Z,-142.80
2023-02-08T07:53:25.110Z,-142.80
2023-02-08T07:58:26.737Z,-142.80
2023-02-08T08:03:28.833Z,-142.80
2023-02-08T08:08:30.452Z,-142.80
2023-02-08T08:13:32.089Z,-142.80
2023-02-08T08:18:33.706Z,-142.80
2023-02-08T08:23:36.360Z,-142.80
2023-02-08T08:28:38.251Z,-142.80
2023-02-08T08:33:40.053Z,-142.80
2023-02-08T08:38:41.909Z,-142.80
2023-02-08T08:43:44.079Z,-142.80
2023-02-08T08:48:46.763Z,-142.80
2023-02-08T08:53:48.375Z,-142.80
2023-02-08T08:58:49.973Z,-142.80
2023-02-08T09:03:51.596Z,-142.80
2023-02-08T09:08:53.298Z,-142.80
2023-02-08T09:13:56.315Z,-142.80
2023-02-08T09:19:02.387Z,-142.80
2023-02-08T09:24:04.497Z,-142.80
2023-02-08T09:29:06.367Z,-142.80
2023-02-08T09:34:08.085Z,-142.80
2023-02-08T09:39:15.840Z,-142.80
2023-02-08T09:44:17.426Z,-142.80
2023-02-08T09:49:25.845Z,-142.80
2023-02-08T09:54:33.532Z,-142.80
2023-02-08T09:59:35.421Z,-142.80
2023-02-08T10:04:55.314Z,-142.80
2023-02-08T10:10:01.254Z,-142.80
2023-02-08T10:15:09.504Z,-142.80
2023-02-08T10:20:20.108Z,-142.80
2023-02-08T10:26:09.978Z,-142.80
2023-02-08T10:31:52.398Z,-142.80
2023-02-08T10:36:54.083Z,-142.80
2023-02-08T10:41:56.104Z,-142.80
2023-02-08T10:47:10.817Z,-142.80
2023-02-08T10:52:12.546Z,-142.80
2023-02-08T10:57:20.393Z,-142.80
2023-02-08T11:02:32.220Z,-142.80
2023-02-08T11:07:36.701Z,-142.80
2023-02-08T11:12:40.949Z,-142.80
2023-02-08T11:17:44.718Z,-142.80
2023-02-08T11:22:46.763Z,-142.80
2023-02-08T11:27:49.112Z,-142.80
2023-02-08T11:33:19.919Z,6.46
2023-02-08T11:38:27.429Z,10.37
2023-02-08T11:43:33.477Z,12.73
2023-02-08T11:48:44.587Z,10.90
2023-02-08T11:53:48.342Z,8.51
2023-02-08T11:59:10.485Z,14.06
2023-02-08T12:04:14.996Z,13.48
2023-02-08T12:09:32.042Z,13.14
2023-02-08T12:14:52.564Z,12.45
2023-02-08T12:20:18.718Z,9.67
2023-02-08T12:25:26.149Z,10.08
2023-02-08T12:30:37.173Z,9.18
2023-02-08T12:36:02.772Z,7.60
2023-02-08T12:41:23.521Z,8.89
2023-02-08T12:46:31.277Z,9.69
2023-02-08T12:52:09.652Z,9.66
2023-02-08T12:57:15.478Z,7.65
2023-02-08T13:02:29.060Z,7.65
2023-02-08T13:07:38.735Z,6.49
2023-02-08T13:12:46.151Z,6.29
2023-02-08T13:17:57.141Z,7.84
2023-02-08T13:23:03.725Z,6.43
2023-02-08T13:28:11.311Z,5.28
2023-02-08T13:33:23.636Z,5.57
2023-02-08T13:38:27.917Z,5.63
2023-02-08T13:43:49.014Z,5.28
2023-02-08T13:48:53.710Z,3.78
2023-02-08T13:53:55.310Z,5.36
2023-02-08T13:59:01.288Z,4.61
2023-02-08T14:04:12.542Z,4.26
2023-02-08T14:09:44.862Z,4.56
2023-02-08T14:15:16.528Z,4.55
2023-02-08T14:20:29.002Z,3.63
2023-02-08T14:25:53.837Z,3.50
2023-02-08T14:30:58.814Z,3.98
2023-02-08T14:36:04.215Z,4.15
2023-02-08T14:41:05.872Z,3.79
2023-02-08T14:46:42.109Z,4.40
2023-02-08T14:52:06.022Z,2.55
2023-02-08T14:57:23.928Z,3.55
2023-02-08T15:02:31.296Z,3.13
2023-02-08T15:07:39.359Z,3.24
2023-02-08T15:12:44.342Z,3.51
2023-02-08T15:17:51.395Z,2.03
2023-02-08T15:23:02.120Z,1.46
2023-02-08T15:28:25.430Z,1.22
2023-02-08T15:33:27.238Z,1.05
2023-02-08T15:38:30.267Z,0.98
2023-02-08T15:43:33.349Z,0.75
2023-02-08T15:48:45.233Z,0.50
2023-02-08T15:53:50.593Z,0.30
2023-02-08T15:58:57.811Z,0.11
2023-02-08T16:04:02.545Z,-0.23
2023-02-08T16:09:04.468Z,-0.50
2023-02-08T16:14:07.834Z,-0.66
2023-02-08T16:19:24.644Z,-0.46
2023-02-08T16:24:27.269Z,-0.64
2023-02-08T16:29:32.545Z,-0.89
2023-02-08T16:34:38.867Z,-1.17
2023-02-08T16:39:52.558Z,-1.21
2023-02-08T16:44:59.550Z,-1.37
2023-02-08T16:50:01.179Z,-1.35
2023-02-08T16:55:03.200Z,-1.49
2023-02-08T17:00:14.341Z,-1.65
2023-02-08T17:05:17.027Z,-1.43
2023-02-08T17:10:28.622Z,-1.66
2023-02-08T17:15:31.018Z,-1.82
2023-02-08T17:20:35.429Z,-1.99
2023-02-08T17:25:37.575Z,-1.91
2023-02-08T17:30:41.618Z,-2.04
2023-02-08T17:35:44.768Z,-2.06
2023-02-08T17:40:46.744Z,-2.09
2023-02-08T17:45:48.366Z,-2.50
2023-02-08T17:50:51.752Z,-2.42
2023-02-08T17:55:53.397Z,-2.35
2023-02-08T18:00:56.143Z,-2.35
2023-02-08T18:05:59.907Z,-2.54
2023-02-08T18:11:06.329Z,-2.38
2023-02-08T18:16:10.341Z,-2.57
2023-02-08T18:21:17.174Z,-2.73
2023-02-08T18:26:21.256Z,-2.78
2023-02-08T18:31:23.384Z,-2.95
2023-02-08T18:36:25.137Z,-2.96
2023-02-08T18:41:28.710Z,-2.89
2023-02-08T18:46:30.380Z,-3.00
2023-02-08T18:51:32.044Z,-2.96
2023-02-08T18:56:35.326Z,-3.15
2023-02-08T19:01:37.397Z,-3.23
2023-02-08T19:06:39.026Z,-3.21
2023-02-08T19:11:40.712Z,-3.47
2023-02-08T19:16:43.298Z,-3.34
2023-02-08T19:21:44.910Z,-3.37
2023-02-08T19:26:46.694Z,-3.42
2023-02-08T19:31:50.286Z,-3.43
2023-02-08T19:36:54.232Z,-3.51
2023-02-08T19:41:58.825Z,-3.52
2023-02-08T19:47:00.753Z,-3.47
2023-02-08T19:52:02.373Z,-3.64
2023-02-08T19:57:04.070Z,-3.73
2023-02-08T20:02:06.321Z,-3.75
2023-02-08T20:07:09.636Z,-3.68
2023-02-08T20:12:11.251Z,-3.92
2023-02-08T20:17:12.840Z,-3.90
2023-02-08T20:22:14.436Z,-3.77
2023-02-08T20:27:16.095Z,-3.88
2023-02-08T20:32:18.485Z,-3.91
2023-02-08T20:37:21.182Z,-3.95
2023-02-08T20:42:22.840Z,-3.81
2023-02-08T20:47:24.553Z,-4.08
2023-02-08T20:52:26.161Z,-4.17
2023-02-08T20:57:27.933Z,-4.26
2023-02-08T21:02:29.617Z,-4.39
2023-02-08T21:07:31.325Z,-4.45
2023-02-08T21:12:33.506Z,-4.51
2023-02-08T21:17:36.580Z,-4.48
2023-02-08T21:22:38.198Z,-4.58
2023-02-08T21:27:39.944Z,-4.49
2023-02-08T21:32:43.096Z,-4.61
2023-02-08T21:37:44.697Z,-4.85
2023-02-08T21:42:46.361Z,-4.91
2023-02-08T21:47:48.378Z,-4.98
2023-02-08T21:53:08.418Z,-5.09
2023-02-08T21:58:10.007Z,-4.84
2023-02-08T22:03:11.634Z,-5.02
2023-02-08T22:08:13.276Z,-5.14
2023-02-08T22:13:14.874Z,-5.11
2023-02-08T22:18:16.478Z,-5.12
2023-02-08T22:23:18.169Z,-5.18
2023-02-08T22:28:19.815Z,-5.33
2023-02-08T22:33:21.515Z,-5.36
2023-02-08T22:38:24.142Z,-5.55
2023-02-08T22:43:25.756Z,-5.41
2023-02-08T22:48:27.868Z,-5.55
2023-02-08T22:53:29.476Z,-5.66
2023-02-08T22:58:31.284Z,-5.66
2023-02-08T23:03:32.874Z,-5.77
2023-02-08T23:08:34.736Z,-5.91
2023-02-08T23:13:36.333Z,-6.07
2023-02-08T23:18:37.940Z,-5.91
2023-02-08T23:23:40.536Z,-5.84
2023-02-08T23:28:42.174Z,-6.18
2023-02-08T23:33:44.090Z,-6.02
2023-02-08T23:38:46.292Z,-6.16
2023-02-08T23:43:49.681Z,-6.25
2023-02-08T23:48:51.713Z,-6.33
2023-02-08T23:53:54.340Z,-5.98
2023-02-08T23:58:59.055Z,-6.05
